Time;durP1;ratioP1;P1;durP2;ratioP2;P2;SDS_P1;SDS_P2;PMS_P1;PMS_P2;Temp;Humidity;BMP_temperature;BMP_pressure;BME280_temperature;BME280_humidity;BME280_pressure;Samples;Min_cycle;Max_cycle;Signal;HPM_P1;HPM_P2
2021/05/01 00:01:03;;;;;;;0.60;0.60;;;;;;;15.08;65.04;93355.75;5093789;28;20409;-38
2021/05/01 00:03:28;;;;;;;1.38;1.30;;;;;;;15.23;64.66;93354.00;5089364;28;20036;-39
2021/05/01 00:05:53;;;;;;;0.52;0.52;;;;;;;14.88;65.44;93359.75;5089611;28;20042;-37
2021/05/01 00:08:19;;;;;;;1.25;1.15;;;;;;;14.74;65.58;93364.25;5089342;28;20081;-37
2021/05/01 00:10:45;;;;;;;1.35;1.15;;;;;;;14.87;65.18;93369.44;5089245;28;20032;-37
2021/05/01 00:13:11;;;;;;;0.50;0.50;;;;;;;14.78;65.17;93361.78;5089514;28;20054;-38
2021/05/01 00:15:37;;;;;;;0.90;0.77;;;;;;;14.84;65.09;93359.44;5089141;28;20532;-38
2021/05/01 00:18:03;;;;;;;0.93;0.93;;;;;;;14.64;66.20;93357.88;5088709;28;20121;-38
2021/05/01 00:20:28;;;;;;;1.10;1.10;;;;;;;14.72;66.46;93355.00;5089451;28;20028;-37
2021/05/01 00:22:54;;;;;;;0.93;0.93;;;;;;;14.28;66.50;93341.16;5106519;28;20599;-38
2021/05/01 00:25:19;;;;;;;1.23;1.08;;;;;;;14.37;67.01;93349.56;5095013;28;20032;-37
2021/05/01 00:27:45;;;;;;;0.85;0.82;;;;;;;14.62;66.77;93354.25;5088636;28;20040;-37
2021/05/01 00:30:11;;;;;;;0.57;0.57;;;;;;;14.67;65.77;93344.88;5089400;28;20024;-39
2021/05/01 00:32:37;;;;;;;0.50;0.50;;;;;;;14.58;65.36;93348.34;5089518;28;20069;-38
2021/05/01 00:35:03;;;;;;;0.85;0.85;;;;;;;14.54;65.65;93354.34;5089204;28;20152;-37
2021/05/01 00:37:28;;;;;;;1.92;1.38;;;;;;;14.54;66.53;93350.81;5092392;28;20027;-38
2021/05/01 00:39:54;;;;;;;0.63;0.63;;;;;;;14.41;66.48;93357.47;5093411;28;20081;-37
2021/05/01 00:42:19;;;;;;;1.65;1.42;;;;;;;14.30;66.47;93338.56;5093161;28;20081;-38
2021/05/01 00:44:45;;;;;;;2.70;1.55;;;;;;;14.14;67.33;93346.31;5094685;28;20052;-38
2021/05/01 00:47:10;;;;;;;0.55;0.55;;;;;;;13.95;68.48;93354.50;5094715;28;20032;-38
2021/05/01 00:49:36;;;;;;;0.85;0.85;;;;;;;14.12;68.18;93356.56;5093338;28;20043;-38
2021/05/01 00:52:01;;;;;;;2.25;2.05;;;;;;;14.15;67.53;93347.78;5095395;28;20474;-38
2021/05/01 00:54:27;;;;;;;0.50;0.50;;;;;;;13.89;68.14;93359.59;5097982;28;20051;-38
2021/05/01 00:56:52;;;;;;;0.45;0.45;;;;;;;13.83;68.80;93356.31;5112443;28;20032;-38
2021/05/01 00:59:17;;;;;;;0.50;0.50;;;;;;;14.01;68.81;93368.88;5095508;28;20028;-37
2021/05/01 01:01:50;;;;;;;0.20;0.20;;;;;;;14.01;67.15;93354.28;5113285;28;20027;-37
2021/05/01 01:04:17;;;;;;;3.38;2.00;;;;;;;14.10;67.43;93356.38;5100675;28;20062;-37
2021/05/01 01:06:43;;;;;;;1.42;1.38;;;;;;;14.09;67.24;93363.97;5092428;28;20038;-37
2021/05/01 01:09:09;;;;;;;1.30;1.13;;;;;;;14.09;67.52;93349.34;5091656;28;20035;-37
2021/05/01 01:11:36;;;;;;;1.85;1.50;;;;;;;14.19;67.13;93355.69;5092527;28;20020;-37
2021/05/01 01:14:02;;;;;;;0.52;0.52;;;;;;;14.20;67.83;93349.59;5092743;28;20038;-37
2021/05/01 01:16:29;;;;;;;1.23;1.05;;;;;;;14.37;67.33;93359.94;5091574;28;20020;-37
2021/05/01 01:18:55;;;;;;;1.67;0.93;;;;;;;14.38;66.89;93353.06;5092385;28;20500;-37
2021/05/01 01:21:21;;;;;;;0.60;0.60;;;;;;;13.89;68.12;93353.28;5096541;28;20423;-37
2021/05/01 01:23:47;;;;;;;6.38;1.35;;;;;;;13.76;68.85;93354.38;5111819;28;20108;-37
2021/05/01 01:26:13;;;;;;;1.33;1.33;;;;;;;13.91;68.63;93353.44;5092520;28;20504;-37
2021/05/01 01:28:39;;;;;;;3.22;2.92;;;;;;;13.74;69.45;93348.66;5092028;28;20131;-37
2021/05/01 01:31:05;;;;;;;0.80;0.80;;;;;;;13.89;69.63;93345.72;5092056;28;20073;-37
2021/05/01 01:33:30;;;;;;;1.23;1.23;;;;;;;13.86;69.53;93348.91;5092180;28;20020;-37
2021/05/01 01:35:56;;;;;;;1.52;1.42;;;;;;;13.85;69.51;93337.06;5091315;28;20517;-37
2021/05/01 01:38:21;;;;;;;1.17;1.17;;;;;;;14.00;69.86;93345.22;5091902;28;20506;-37
2021/05/01 01:40:47;;;;;;;0.60;0.60;;;;;;;13.90;69.18;93341.63;5100081;28;21299;-37
2021/05/01 01:43:12;;;;;;;0.60;0.60;;;;;;;13.88;68.79;93324.09;5100507;28;20074;-37
2021/05/01 01:45:38;;;;;;;1.27;1.17;;;;;;;13.95;68.78;93351.75;5101921;28;20019;-37
2021/05/01 01:48:04;;;;;;;0.50;0.50;;;;;;;13.87;69.21;93351.09;5101828;28;20154;-37
2021/05/01 01:50:29;;;;;;;1.17;1.13;;;;;;;13.93;69.63;93337.69;5102536;28;20012;-38
2021/05/01 01:52:56;;;;;;;0.65;0.65;;;;;;;14.12;69.05;93343.38;5099925;28;20539;-38
2021/05/01 01:55:23;;;;;;;0.50;0.30;;;;;;;14.20;68.13;93341.25;5091602;28;20027;-38
2021/05/01 01:57:49;;;;;;;1.13;1.13;;;;;;;14.11;68.83;93341.19;5091550;28;20114;-37
2021/05/01 02:00:24;;;;;;;1.85;1.25;;;;;;;14.07;68.92;93343.66;5101038;28;20108;-38
2021/05/01 02:02:50;;;;;;;0.75;0.63;;;;;;;14.11;68.43;93330.09;5112253;28;20088;-38
2021/05/01 02:05:16;;;;;;;0.40;0.40;;;;;;;14.11;68.21;93341.19;5112163;28;20671;-38
2021/05/01 02:07:41;;;;;;;0.30;0.30;;;;;;;14.24;67.33;93343.63;5111737;28;20030;-37
2021/05/01 02:10:08;;;;;;;0.40;0.40;;;;;;;14.05;68.34;93349.78;5111742;28;20015;-38
2021/05/01 02:12:38;;;;;;;0.82;0.73;;;;;;;14.03;69.14;93340.56;5111651;28;20019;-38
2021/05/01 02:15:24;;;;;;;1.05;1.05;;;;;;;14.15;68.60;93342.25;5111824;28;20031;-37
2021/05/01 02:17:53;;;;;;;2.58;1.13;;;;;;;14.08;67.81;93340.28;5111484;28;20080;-37
2021/05/01 02:20:24;;;;;;;2.50;1.23;;;;;;;14.09;68.74;93344.53;5111771;28;20230;-37
2021/05/01 02:22:49;;;;;;;0.40;0.40;;;;;;;13.90;68.96;93354.78;5094908;28;20028;-37
2021/05/01 02:25:15;;;;;;;0.40;0.40;;;;;;;13.61;70.43;93351.75;5091110;28;20024;-38
2021/05/01 02:27:41;;;;;;;0.57;0.57;;;;;;;13.68;70.19;93357.25;5090961;28;20471;-37
2021/05/01 02:30:13;;;;;;;0.43;0.43;;;;;;;13.48;71.04;93368.72;5090987;28;20562;-38
2021/05/01 02:32:39;;;;;;;5.95;1.10;;;;;;;13.58;70.86;93364.72;5091153;28;20020;-37
2021/05/01 02:35:07;;;;;;;0.38;0.38;;;;;;;13.69;70.78;93363.50;5090947;28;20035;-37
2021/05/01 02:37:32;;;;;;;6.22;1.70;;;;;;;13.83;70.07;93366.69;5090742;28;20109;-37
2021/05/01 02:39:58;;;;;;;1.35;0.47;;;;;;;13.86;70.59;93360.00;5090672;28;20529;-37
2021/05/01 02:42:23;;;;;;;0.73;0.73;;;;;;;13.52;70.94;93364.25;5089573;28;20039;-37
2021/05/01 02:44:49;;;;;;;1.77;1.67;;;;;;;13.28;71.97;93362.25;5090975;28;20451;-38
2021/05/01 02:47:14;;;;;;;0.80;0.80;;;;;;;13.29;72.20;93352.63;5098200;28;20719;-37
2021/05/01 02:49:40;;;;;;;1.58;1.48;;;;;;;13.46;72.00;93347.09;5110952;28;20027;-38
2021/05/01 02:52:05;;;;;;;0.80;0.80;;;;;;;13.66;71.66;93348.00;5111249;28;20027;-37
2021/05/01 02:54:31;;;;;;;0.52;0.52;;;;;;;13.51;71.21;93342.63;5110926;28;20491;-37
2021/05/01 02:56:56;;;;;;;0.88;0.88;;;;;;;13.63;71.17;93349.88;5110941;28;20023;-37
2021/05/01 02:59:22;;;;;;;1.73;1.63;;;;;;;13.69;71.28;93349.63;5108582;28;20023;-37
2021/05/01 03:01:48;;;;;;;0.90;0.90;;;;;;;13.67;70.56;93339.13;5090528;28;20557;-37
2021/05/01 03:04:13;;;;;;;0.77;0.77;;;;;;;13.70;70.42;93342.78;5090543;28;20024;-37
2021/05/01 03:06:39;;;;;;;1.55;0.82;;;;;;;13.50;71.12;93344.66;5090786;28;20442;-37
2021/05/01 03:09:05;;;;;;;0.57;0.57;;;;;;;13.55;71.28;93334.63;5090542;28;20028;-36
2021/05/01 03:11:30;;;;;;;0.85;0.85;;;;;;;13.18;71.93;93341.28;5090335;28;20022;-36
2021/05/01 03:13:56;;;;;;;0.50;0.50;;;;;;;13.15;72.41;93342.41;5090258;28;20027;-37
2021/05/01 03:16:21;;;;;;;0.70;0.70;;;;;;;13.29;72.27;93344.31;5090593;28;20020;-38
2021/05/01 03:18:47;;;;;;;0.93;0.80;;;;;;;13.06;72.75;93340.28;5090498;28;20038;-38
2021/05/01 03:21:12;;;;;;;0.63;0.52;;;;;;;13.25;72.48;93349.53;5092935;28;20454;-38
2021/05/01 03:23:38;;;;;;;2.42;2.22;;;;;;;13.24;71.46;93359.16;5110699;28;20147;-37
2021/05/01 03:26:03;;;;;;;2.78;2.58;;;;;;;13.40;71.72;93368.81;5089922;28;20031;-37
2021/05/01 03:28:29;;;;;;;3.55;3.30;;;;;;;13.35;71.63;93372.53;5089769;28;20094;-37
2021/05/01 03:30:54;;;;;;;5.18;4.65;;;;;;;13.09;72.18;93366.84;5090152;28;20027;-37
2021/05/01 03:33:20;;;;;;;4.45;4.03;;;;;;;13.05;72.38;93370.03;5089756;28;20012;-37
2021/05/01 03:35:47;;;;;;;1.30;1.25;;;;;;;13.18;71.80;93378.06;5090075;28;20024;-37
2021/05/01 03:38:12;;;;;;;2.40;2.22;;;;;;;12.87;72.66;93374.03;5089785;28;20485;-36
2021/05/01 03:40:37;;;;;;;2.67;2.47;;;;;;;12.93;73.00;93377.28;5089920;28;20028;-36
2021/05/01 03:43:05;;;;;;;2.53;1.80;;;;;;;12.93;72.71;93361.41;5091027;28;20030;-36
2021/05/01 03:45:30;;;;;;;3.42;1.50;;;;;;;13.17;72.39;93370.28;5089710;28;20034;-36
2021/05/01 03:47:55;;;;;;;1.30;1.20;;;;;;;13.06;72.91;93371.50;5089653;28;20031;-36
2021/05/01 03:50:21;;;;;;;1.67;1.55;;;;;;;13.01;72.97;93369.69;5089633;28;20024;-37
2021/05/01 03:52:46;;;;;;;0.77;0.77;;;;;;;13.10;73.22;93366.31;5089702;28;20024;-37
2021/05/01 03:55:13;;;;;;;1.48;1.40;;;;;;;13.36;72.71;93359.41;5101819;28;20089;-37
2021/05/01 03:57:38;;;;;;;2.63;1.27;;;;;;;13.42;71.71;93363.44;5090942;28;20020;-37
2021/05/01 04:00:04;;;;;;;0.65;0.65;;;;;;;13.47;71.17;93359.66;5089656;28;20081;-37
2021/05/01 04:02:30;;;;;;;0.65;0.65;;;;;;;13.58;71.35;93361.94;5089491;28;20505;-37
2021/05/01 04:04:55;;;;;;;2.35;1.63;;;;;;;13.68;70.45;93362.78;5089604;28;20109;-37
2021/05/01 04:07:21;;;;;;;1.67;1.58;;;;;;;13.87;69.67;93364.22;5089564;28;20154;-37
2021/05/01 04:09:47;;;;;;;3.45;3.15;;;;;;;13.85;69.72;93367.59;5090392;28;20028;-37
2021/05/01 04:12:12;;;;;;;5.50;2.55;;;;;;;13.75;69.55;93366.03;5112849;28;20028;-36
2021/05/01 04:14:37;;;;;;;8.70;2.17;;;;;;;13.96;69.63;93367.09;5114429;28;20024;-37
2021/05/01 04:17:03;;;;;;;2.30;1.95;;;;;;;13.66;70.65;93370.91;5114116;28;20393;-36
2021/05/01 04:19:28;;;;;;;2.83;2.63;;;;;;;13.89;70.27;93379.00;5114108;28;20032;-37
2021/05/01 04:21:56;;;;;;;1.50;1.40;;;;;;;13.87;69.66;93378.13;5105324;28;20035;-37
2021/05/01 04:24:22;;;;;;;0.50;0.50;;;;;;;13.98;69.47;93372.81;5093138;28;20039;-37
2021/05/01 04:26:47;;;;;;;1.58;1.30;;;;;;;14.05;69.19;93376.81;5093155;28;20044;-37
2021/05/01 04:29:12;;;;;;;1.23;1.23;;;;;;;14.23;68.77;93378.22;5093786;28;20032;-37
2021/05/01 04:31:38;;;;;;;1.40;1.30;;;;;;;14.29;68.51;93373.22;5093834;28;20031;-37
2021/05/01 04:34:03;;;;;;;1.42;1.33;;;;;;;13.97;69.26;93379.66;5093463;28;20020;-37
2021/05/01 04:36:29;;;;;;;0.30;0.30;;;;;;;14.25;68.91;93370.78;5095367;28;20024;-37
2021/05/01 04:38:54;;;;;;;4.63;0.88;;;;;;;14.51;68.77;93382.53;5113185;28;20031;-37
2021/05/01 04:41:20;;;;;;;4.70;0.65;;;;;;;14.80;68.46;93361.19;5093618;28;20117;-37
2021/05/01 04:43:46;;;;;;;1.33;1.25;;;;;;;15.16;66.14;93369.50;5093343;28;20043;-38
2021/05/01 04:46:17;;;;;;;0.90;0.90;;;;;;;15.53;64.50;93362.59;5093230;28;20024;-38
2021/05/01 04:48:42;;;;;;;1.77;1.67;;;;;;;15.70;63.69;93353.41;5093412;28;20047;-36
2021/05/01 04:51:08;;;;;;;1.52;1.42;;;;;;;16.02;64.12;93358.56;5092143;28;20472;-36
2021/05/01 04:53:34;;;;;;;3.88;2.53;;;;;;;16.21;63.66;93361.31;5093301;28;20106;-36
2021/05/01 04:55:59;;;;;;;3.00;2.25;;;;;;;16.38;63.00;93358.38;5092853;28;20114;-36
2021/05/01 04:58:25;;;;;;;1.58;1.48;;;;;;;16.39;62.58;93356.31;5092867;28;20023;-36
2021/05/01 05:00:50;;;;;;;1.45;1.35;;;;;;;16.48;62.20;93363.94;5098276;28;20036;-36
2021/05/01 05:03:15;;;;;;;4.57;1.65;;;;;;;16.74;61.68;93359.50;5113408;28;20032;-37
2021/05/01 05:05:41;;;;;;;1.00;1.00;;;;;;;17.08;61.62;93361.88;5113042;28;20035;-37
2021/05/01 05:08:07;;;;;;;2.55;2.35;;;;;;;17.29;60.69;93367.50;5112985;28;20102;-37
2021/05/01 05:10:32;;;;;;;5.18;4.50;;;;;;;17.50;61.20;93370.34;5112937;28;20023;-37
2021/05/01 05:12:58;;;;;;;2.20;2.08;;;;;;;17.10;61.15;93364.78;5112683;28;20036;-36
2021/05/01 05:15:36;;;;;;;1.65;1.55;;;;;;;17.08;61.59;93365.38;5093706;28;20024;-36
2021/05/01 05:18:02;;;;;;;1.85;1.63;;;;;;;17.52;60.65;93361.38;5092995;28;20031;-37
2021/05/01 05:20:27;;;;;;;1.00;1.00;;;;;;;17.91;60.62;93360.53;5094967;28;20020;-37
2021/05/01 05:22:52;;;;;;;1.40;1.17;;;;;;;18.28;59.35;93360.09;5108986;28;20034;-37
2021/05/01 05:25:18;;;;;;;1.80;1.30;;;;;;;18.56;58.36;93364.72;5112384;28;20023;-37
2021/05/01 05:27:43;;;;;;;1.75;1.50;;;;;;;18.88;58.32;93373.03;5112486;28;20067;-37
2021/05/01 05:30:09;;;;;;;1.30;0.80;;;;;;;19.21;57.67;93370.16;5112950;28;20643;-37
2021/05/01 05:32:35;;;;;;;2.55;2.35;;;;;;;19.58;55.00;93371.06;5112901;28;20031;-36
2021/05/01 05:35:00;;;;;;;3.05;2.20;;;;;;;20.08;54.48;93372.53;5112809;28;20125;-37
2021/05/01 05:37:26;;;;;;;2.17;2.05;;;;;;;20.46;53.68;93371.97;5112313;28;20039;-37
2021/05/01 05:39:52;;;;;;;1.88;1.48;;;;;;;20.71;53.16;93357.94;5112521;28;20039;-37
2021/05/01 05:42:19;;;;;;;1.40;1.30;;;;;;;20.85;52.79;93361.53;5112373;28;20496;-37
2021/05/01 05:44:46;;;;;;;2.08;1.75;;;;;;;20.46;51.50;93360.00;5112649;28;20058;-37
2021/05/01 05:47:12;;;;;;;5.20;1.70;;;;;;;20.57;52.67;93354.38;5112292;28;20063;-37
2021/05/01 05:49:38;;;;;;;0.90;0.90;;;;;;;20.77;51.95;93341.44;5110942;28;20104;-37
2021/05/01 05:52:04;;;;;;;1.58;1.33;;;;;;;21.10;51.07;93360.78;5110319;28;20112;-37
2021/05/01 05:54:29;;;;;;;2.20;2.00;;;;;;;21.14;50.71;93364.53;5111050;28;20070;-37
2021/05/01 05:56:55;;;;;;;1.80;1.70;;;;;;;21.17;50.49;93364.63;5110748;28;20119;-37
2021/05/01 05:59:20;;;;;;;2.63;2.33;;;;;;;20.97;49.97;93367.78;5109007;28;20484;-37
2021/05/01 06:01:47;;;;;;;0.60;0.60;;;;;;;21.08;50.39;93372.63;5110412;27;20023;-37
2021/05/01 06:04:21;;;;;;;1.38;0.40;;;;;;;21.18;51.59;93375.25;5104321;28;20070;-37
2021/05/01 06:07:11;;;;;;;0.65;0.65;;;;;;;21.31;49.80;93387.88;5091742;28;20032;-37
2021/05/01 06:09:40;;;;;;;1.98;0.60;;;;;;;20.85;50.54;93363.59;5091282;28;20091;-37
2021/05/01 06:12:10;;;;;;;0.50;0.50;;;;;;;21.38;50.33;93381.22;5099765;28;20031;-38
2021/05/01 06:14:41;;;;;;;0.43;0.43;;;;;;;22.09;49.92;93382.81;5091804;28;20028;-37
2021/05/01 06:17:06;;;;;;;1.27;1.17;;;;;;;22.58;48.27;93384.59;5101132;28;20023;-37
2021/05/01 06:19:32;;;;;;;1.92;1.73;;;;;;;22.81;45.72;93391.31;5109511;28;20115;-37
2021/05/01 06:21:59;;;;;;;2.75;2.55;;;;;;;23.25;45.88;93390.59;5104701;28;20571;-37
2021/05/01 06:24:24;;;;;;;2.08;1.98;;;;;;;23.75;44.59;93395.00;5092013;28;20052;-37
2021/05/01 06:26:50;;;;;;;2.88;2.55;;;;;;;24.52;43.82;93374.38;5087235;28;20224;-37
2021/05/01 06:29:16;;;;;;;5.68;2.42;;;;;;;25.21;40.57;93375.03;5089188;28;20111;-37
2021/05/01 06:31:42;;;;;;;1.40;1.30;;;;;;;26.21;39.12;93366.03;5091550;28;20051;-37
2021/05/01 06:34:08;;;;;;;1.50;0.95;;;;;;;27.19;36.90;93370.69;5110447;28;20062;-38
2021/05/01 06:36:35;;;;;;;1.30;0.75;;;;;;;28.14;34.81;93360.06;5111062;28;20571;-38
2021/05/01 06:39:05;;;;;;;1.90;1.77;;;;;;;29.06;32.39;93358.91;5111125;28;20024;-37
2021/05/01 06:41:51;;;;;;;3.00;1.23;;;;;;;28.96;32.50;93344.44;5100931;28;20039;-38
2021/05/01 06:44:18;;;;;;;1.52;0.73;;;;;;;28.72;32.37;93344.56;5089954;28;20040;-38
2021/05/01 06:46:48;;;;;;;1.13;1.08;;;;;;;28.96;32.56;93335.91;5090975;28;20416;-38
2021/05/01 06:49:29;;;;;;;0.90;0.70;;;;;;;29.30;29.88;93331.06;5089603;28;20028;-37
2021/05/01 06:51:56;;;;;;;0.63;0.63;;;;;;;29.34;31.05;93328.31;5089653;28;20024;-38
2021/05/01 06:54:22;;;;;;;0.73;0.60;;;;;;;29.50;29.57;93331.50;5089464;28;20630;-38
2021/05/01 06:56:48;;;;;;;0.88;0.85;;;;;;;30.08;27.85;93332.03;5089544;28;20020;-38
2021/05/01 06:59:14;;;;;;;1.05;0.95;;;;;;;30.14;25.91;93323.59;5089349;28;20020;-38
2021/05/01 07:01:40;;;;;;;1.15;0.93;;;;;;;29.60;26.17;93328.88;5089244;28;20024;-38
2021/05/01 07:04:11;;;;;;;0.90;0.90;;;;;;;29.17;27.33;93335.03;5090206;28;20020;-37
2021/05/01 07:06:37;;;;;;;1.00;0.68;;;;;;;28.73;27.24;93325.41;5090358;28;20055;-37
2021/05/01 07:09:03;;;;;;;0.45;0.45;;;;;;;29.11;27.69;93343.38;5089295;28;20066;-37
2021/05/01 07:11:28;;;;;;;1.20;0.70;;;;;;;29.20;28.51;93337.25;5092514;28;20628;-38
2021/05/01 07:13:54;;;;;;;0.45;0.45;;;;;;;29.51;26.82;93335.78;5106941;28;20026;-37
2021/05/01 07:16:20;;;;;;;0.85;0.75;;;;;;;29.63;25.87;93341.72;5104828;28;20016;-37
2021/05/01 07:18:45;;;;;;;0.10;0.10;;;;;;;29.69;28.86;93339.00;5090046;28;20045;-38
2021/05/01 07:21:11;;;;;;;1.10;0.95;;;;;;;30.34;25.72;93331.81;5091222;28;20024;-39
2021/05/01 07:23:37;;;;;;;4.07;0.65;;;;;;;30.49;25.80;93337.06;5110303;28;20032;-37
2021/05/01 07:26:03;;;;;;;0.10;0.10;;;;;;;29.79;25.57;93330.72;5103778;27;20035;-37
2021/05/01 07:28:34;;;;;;;1.45;1.35;;;;;;;29.56;25.95;93333.75;5089727;28;20035;-38
2021/05/01 07:31:06;;;;;;;0.35;0.35;;;;;;;29.43;27.31;93341.31;5097962;28;20432;-38
2021/05/01 07:33:42;;;;;;;0.73;0.73;;;;;;;30.75;25.34;93345.38;5089303;28;20055;-38
2021/05/01 07:36:11;;;;;;;0.68;0.68;;;;;;;31.62;23.54;93355.34;5089857;28;20136;-36
2021/05/01 07:38:37;;;;;;;0.22;0.20;;;;;;;32.32;24.07;93355.53;5089471;28;20035;-38
2021/05/01 07:41:03;;;;;;;0.50;0.50;;;;;;;33.15;22.34;93363.56;5088354;28;20024;-36
2021/05/01 07:43:30;;;;;;;2.28;1.30;;;;;;;33.99;21.06;93369.16;5089702;28;20028;-38
2021/05/01 07:45:57;;;;;;;0.85;0.55;;;;;;;34.69;20.13;93365.19;5089674;28;20024;-36
2021/05/01 07:48:23;;;;;;;0.70;0.57;;;;;;;35.71;19.51;93378.91;5089692;28;20562;-36
2021/05/01 07:50:49;;;;;;;0.40;0.32;;;;;;;36.08;19.58;93373.84;5089876;28;20028;-36
2021/05/01 07:53:15;;;;;;;0.17;0.17;;;;;;;36.75;19.28;93382.91;5103754;28;20043;-36
2021/05/01 07:55:41;;;;;;;3.33;0.90;;;;;;;37.66;18.49;93372.25;5101773;28;20516;-36
2021/05/01 07:58:07;;;;;;;7.05;1.23;;;;;;;38.08;17.74;93391.28;5100707;28;20016;-37
2021/05/01 08:00:34;;;;;;;5.70;1.42;;;;;;;37.84;17.52;93394.41;5095144;28;20409;-36
2021/05/01 08:03:03;;;;;;;1.13;0.43;;;;;;;38.37;16.57;93403.25;5089546;28;20024;-36
2021/05/01 08:05:29;;;;;;;8.77;0.80;;;;;;;38.22;16.73;93411.34;5088691;28;20421;-36
2021/05/01 08:07:55;;;;;;;0.57;0.57;;;;;;;37.66;15.94;93403.22;5089622;28;20031;-36
2021/05/01 08:10:20;;;;;;;0.20;0.20;;;;;;;37.56;15.71;93412.66;5089548;28;20023;-36
2021/05/01 08:12:46;;;;;;;0.63;0.30;;;;;;;38.09;15.26;93418.69;5089409;28;20028;-36
2021/05/01 08:15:12;;;;;;;0.73;0.60;;;;;;;38.42;17.59;93425.56;5089801;28;20020;-37
2021/05/01 08:17:39;;;;;;;0.10;0.10;;;;;;;38.34;14.84;93419.16;5090006;28;20028;-36
2021/05/01 08:20:05;;;;;;;0.10;0.10;;;;;;;37.48;16.74;93409.13;5089655;28;20028;-36
2021/05/01 08:22:31;;;;;;;1.55;1.08;;;;;;;36.86;19.88;93418.84;5103452;28;20131;-36
2021/05/01 08:24:56;;;;;;;1.88;1.75;;;;;;;35.63;20.29;93407.63;5098694;28;20106;-37
2021/05/01 08:27:23;;;;;;;2.88;1.27;;;;;;;35.86;22.43;93431.31;5089070;28;20177;-36
2021/05/01 08:29:48;;;;;;;0.25;0.20;;;;;;;35.94;21.53;93429.16;5104961;28;20089;-37
2021/05/01 08:32:14;;;;;;;0.95;0.95;;;;;;;36.31;21.44;93418.31;5107231;28;20544;-38
2021/05/01 08:34:40;;;;;;;0.43;0.13;;;;;;;37.70;19.53;93421.19;5106423;28;20030;-37
2021/05/01 08:37:06;;;;;;;0.35;0.35;;;;;;;38.45;19.88;93426.97;5107596;28;20759;-38
2021/05/01 08:39:31;;;;;;;0.25;0.25;;;;;;;38.65;19.19;93420.25;5107902;28;20032;-38
2021/05/01 08:41:57;;;;;;;0.70;0.40;;;;;;;38.19;20.52;93415.69;5106985;28;20426;-39
2021/05/01 08:44:22;;;;;;;1.17;1.08;;;;;;;38.95;18.72;93410.50;5095756;28;20115;-38
2021/05/01 08:46:48;;;;;;;3.10;0.75;;;;;;;39.31;18.48;93407.13;5096785;28;20022;-39
2021/05/01 08:49:13;;;;;;;3.22;1.13;;;;;;;38.62;17.13;93410.88;5097139;28;20024;-38
2021/05/01 08:51:41;;;;;;;0.55;0.55;;;;;;;37.78;19.42;93405.97;5094243;28;20526;-40
2021/05/01 08:54:12;;;;;;;1.10;0.90;;;;;;;37.86;19.26;93408.81;5096134;28;20032;-37
2021/05/01 08:56:38;;;;;;;2.22;0.50;;;;;;;37.30;18.04;93401.28;5102351;28;20489;-38
2021/05/01 08:59:04;;;;;;;0.43;0.35;;;;;;;36.68;19.68;93393.03;5094259;28;20036;-37
2021/05/01 09:01:30;;;;;;;2.47;0.65;;;;;;;36.46;20.19;93385.94;5102503;28;20032;-40
2021/05/01 09:03:55;;;;;;;1.70;0.90;;;;;;;36.09;19.11;93381.72;5098975;28;20032;-40
2021/05/01 09:06:25;;;;;;;2.10;1.17;;;;;;;36.06;20.43;93391.09;5109739;27;20034;-39
2021/05/01 09:08:59;;;;;;;2.03;1.35;;;;;;;35.81;17.59;93378.88;5109910;28;20035;-38
2021/05/01 09:11:45;;;;;;;1.23;1.02;;;;;;;35.62;17.77;93383.94;5106478;28;20043;-38
2021/05/01 09:14:29;;;;;;;1.48;0.95;;;;;;;35.89;20.56;93386.78;5101836;28;20492;-38
2021/05/01 09:17:00;;;;;;;0.73;0.65;;;;;;;36.01;19.56;93381.75;5092842;28;20106;-37
2021/05/01 09:19:33;;;;;;;0.57;0.57;;;;;;;34.83;17.69;93371.66;5103235;28;20089;-37
2021/05/01 09:22:04;;;;;;;0.30;0.30;;;;;;;34.90;20.76;93373.09;5103059;28;20024;-37
2021/05/01 09:24:29;;;;;;;0.90;0.80;;;;;;;34.68;19.02;93373.06;5095527;28;20020;-39
2021/05/01 09:26:55;;;;;;;1.92;1.42;;;;;;;34.74;21.97;93373.06;5096212;28;20055;-39
2021/05/01 09:29:32;;;;;;;1.25;0.95;;;;;;;34.08;20.23;93375.69;5101396;28;20028;-37
2021/05/01 09:32:00;;;;;;;4.25;0.70;;;;;;;34.28;20.22;93382.19;5090424;28;20537;-38
2021/05/01 09:34:37;;;;;;;0.60;0.60;;;;;;;34.33;21.37;93386.53;5099968;28;20024;-39
2021/05/01 09:37:02;;;;;;;3.75;1.75;;;;;;;34.22;21.34;93373.59;5110577;28;20043;-40
2021/05/01 09:39:29;;;;;;;1.88;1.65;;;;;;;34.11;20.50;93374.28;5108896;28;20027;-39
2021/05/01 09:41:55;;;;;;;1.90;1.45;;;;;;;33.91;20.13;93368.41;5105493;28;20251;-39
2021/05/01 09:44:21;;;;;;;5.38;3.70;;;;;;;34.21;21.04;93369.31;5090366;28;20032;-39
2021/05/01 09:46:49;;;;;;;5.60;3.72;;;;;;;34.65;21.26;93357.28;5094228;28;20031;-37
2021/05/01 09:49:22;;;;;;;4.85;2.45;;;;;;;34.47;21.48;93362.22;5091781;28;20040;-36
2021/05/01 09:51:54;;;;;;;7.53;1.85;;;;;;;34.73;21.08;93359.44;5098389;28;20059;-36
2021/05/01 09:54:27;;;;;;;3.45;2.88;;;;;;;34.54;20.88;93367.28;5090642;28;20040;-37
2021/05/01 09:56:55;;;;;;;2.92;1.73;;;;;;;34.52;21.20;93355.09;5103930;28;20534;-39
2021/05/01 09:59:20;;;;;;;1.20;1.10;;;;;;;34.48;19.77;93364.34;5098879;28;20156;-38
2021/05/01 10:01:58;;;;;;;0.70;0.70;;;;;;;34.73;21.73;93362.31;5098523;28;20078;-36
2021/05/01 10:04:24;;;;;;;2.05;1.38;;;;;;;34.56;18.72;93357.97;5089644;28;20423;-39
2021/05/01 10:06:59;;;;;;;2.85;1.45;;;;;;;35.33;18.34;93356.66;5100369;28;20028;-38
2021/05/01 10:09:38;;;;;;;0.57;0.57;;;;;;;35.92;17.51;93350.84;5108500;28;20028;-37
2021/05/01 10:12:11;;;;;;;0.98;0.70;;;;;;;36.44;18.48;93347.84;5094376;28;20055;-39
2021/05/01 10:14:50;;;;;;;0.43;0.43;;;;;;;36.86;19.97;93355.53;5103235;28;20059;-37
2021/05/01 10:17:17;;;;;;;2.30;0.50;;;;;;;37.54;17.15;93363.69;5099584;28;20111;-37
2021/05/01 10:19:48;;;;;;;4.18;1.67;;;;;;;37.54;17.41;93360.09;5108803;28;20526;-37
2021/05/01 10:22:31;;;;;;;0.73;0.73;;;;;;;37.35;16.54;93356.66;5097868;28;20028;-38
2021/05/01 10:25:08;;;;;;;8.48;0.55;;;;;;;37.43;12.97;93355.84;5089122;28;20423;-38
2021/05/01 10:27:54;;;;;;;0.45;0.28;;;;;;;38.22;12.59;93350.06;5088368;28;20543;-37
2021/05/01 10:30:29;;;;;;;1.63;1.52;;;;;;;38.54;13.30;93347.53;5088975;28;20027;-38
2021/05/01 10:33:08;;;;;;;7.38;2.45;;;;;;;38.49;12.90;93336.75;5105930;28;20756;-37
2021/05/01 10:35:35;;;;;;;0.80;0.45;;;;;;;38.01;15.02;93332.25;5107004;28;20054;-37
2021/05/01 10:38:03;;;;;;;0.93;0.85;;;;;;;38.10;13.99;93341.56;5088916;28;20058;-39
2021/05/01 10:40:41;;;;;;;1.45;1.17;;;;;;;38.05;14.26;93334.41;5088452;28;20024;-40
2021/05/01 10:43:15;;;;;;;3.63;1.40;;;;;;;38.12;14.20;93333.56;5088920;28;20032;-40
2021/05/01 10:45:47;;;;;;;4.75;1.60;;;;;;;38.28;16.41;93335.59;5088988;28;20039;-37
2021/05/01 10:48:12;;;;;;;9.55;0.50;;;;;;;38.56;15.29;93317.91;5088826;28;20049;-39
2021/05/01 10:50:38;;;;;;;1.17;1.10;;;;;;;38.86;12.85;93325.44;5088897;28;20023;-37
2021/05/01 10:53:20;;;;;;;2.15;1.13;;;;;;;39.70;12.38;93311.88;5088747;28;20101;-37
2021/05/01 10:55:48;;;;;;;8.77;1.73;;;;;;;39.54;12.46;93312.84;5087910;28;20032;-38
2021/05/01 10:58:28;;;;;;;0.98;0.90;;;;;;;38.75;13.11;93301.09;5102021;28;20080;-38
2021/05/01 11:00:53;;;;;;;1.75;1.10;;;;;;;39.25;13.99;93303.94;5092168;28;20166;-38
2021/05/01 11:03:20;;;;;;;3.42;1.40;;;;;;;38.87;14.70;93298.75;5088489;28;20028;-38
2021/05/01 11:05:47;;;;;;;3.28;1.23;;;;;;;38.55;14.06;93297.00;5088324;28;20039;-38
2021/05/01 11:08:33;;;;;;;1.92;1.38;;;;;;;38.54;14.00;93312.91;5087089;28;20024;-39
2021/05/01 11:10:59;;;;;;;7.00;1.48;;;;;;;38.42;13.20;93307.28;5088579;28;20458;-38
2021/05/01 11:13:27;;;;;;;0.75;0.40;;;;;;;37.44;13.71;93317.69;5090637;28;20077;-39
2021/05/01 11:15:57;;;;;;;1.40;0.80;;;;;;;36.55;14.78;93308.22;5102277;28;20032;-39
2021/05/01 11:18:25;;;;;;;3.42;1.23;;;;;;;36.01;15.60;93307.03;5105210;28;20035;-40
2021/05/01 11:20:52;;;;;;;0.95;0.95;;;;;;;35.47;14.00;93301.38;5107490;28;20114;-39
2021/05/01 11:23:20;;;;;;;4.40;1.48;;;;;;;34.98;16.51;93289.16;5087477;28;20419;-38
2021/05/01 11:25:46;;;;;;;1.58;1.40;;;;;;;34.35;17.04;93300.53;5089769;28;20483;-40
2021/05/01 11:28:16;;;;;;;0.20;0.20;;;;;;;34.19;17.53;93314.13;5087547;28;20056;-39
2021/05/01 11:30:42;;;;;;;2.58;1.45;;;;;;;33.47;16.72;93314.41;5086381;28;20085;-40
2021/05/01 11:33:08;;;;;;;0.80;0.80;;;;;;;33.35;17.22;93312.19;5087543;28;20081;-40
2021/05/01 11:35:34;;;;;;;0.20;0.20;;;;;;;33.21;17.12;93308.53;5096484;28;20043;-37